sensor_id;sensor_type;location;lat;lon;timestamp;pressure;altitude;pressure_sealevel;temperature;humidity
69982;BME280;57319;56.274;43.980;2022-11-06T00:00:16;100792.19;;;-1.81;70.75
69982;BME280;57319;56.274;43.980;2022-11-06T00:02:43;100783.66;;;-1.83;70.56
69982;BME280;57319;56.274;43.980;2022-11-06T00:05:09;100796.19;;;-1.85;70.06
69982;BME280;57319;56.274;43.980;2022-11-06T00:07:53;100788.34;;;-2.06;70.94
69982;BME280;57319;56.274;43.980;2022-11-06T00:10:19;100791.09;;;-2.01;70.83
69982;BME280;57319;56.274;43.980;2022-11-06T00:12:45;100797.38;;;-1.95;70.83
69982;BME280;57319;56.274;43.980;2022-11-06T00:15:11;100793.25;;;-1.93;70.99
69982;BME280;57319;56.274;43.980;2022-11-06T00:17:37;100796.59;;;-1.94;71.19
69982;BME280;57319;56.274;43.980;2022-11-06T00:20:05;100796.31;;;-1.98;71.60
69982;BME280;57319;56.274;43.980;2022-11-06T00:22:37;100792.25;;;-2.11;71.95
69982;BME280;57319;56.274;43.980;2022-11-06T00:25:04;100794.31;;;-2.04;71.95
69982;BME280;57319;56.274;43.980;2022-11-06T00:27:30;100797.47;;;-2.08;72.92
69982;BME280;57319;56.274;43.980;2022-11-06T00:29:55;100795.09;;;-2.05;72.58
69982;BME280;57319;56.274;43.980;2022-11-06T00:32:21;100797.91;;;-2.15;73.06
69982;BME280;57319;56.274;43.980;2022-11-06T00:34:47;100791.13;;;-2.16;72.91
69982;BME280;57319;56.274;43.980;2022-11-06T00:37:13;100793.50;;;-2.19;73.09
69982;BME280;57319;56.274;43.980;2022-11-06T00:39:38;100794.03;;;-2.25;73.58
69982;BME280;57319;56.274;43.980;2022-11-06T00:42:04;100792.97;;;-2.14;73.50
69982;BME280;57319;56.274;43.980;2022-11-06T00:44:29;100790.53;;;-2.27;73.67
69982;BME280;57319;56.274;43.980;2022-11-06T00:46:55;100789.75;;;-2.26;74.15
69982;BME280;57319;56.274;43.980;2022-11-06T00:49:21;100792.59;;;-2.20;74.25
69982;BME280;57319;56.274;43.980;2022-11-06T00:51:47;100795.47;;;-2.14;73.98
69982;BME280;57319;56.274;43.980;2022-11-06T00:54:13;100793.34;;;-2.23;74.27
69982;BME280;57319;56.274;43.980;2022-11-06T00:56:39;100779.50;;;-2.44;75.25
69982;BME280;57319;56.274;43.980;2022-11-06T00:59:07;100795.16;;;-2.35;75.47
69982;BME280;57319;56.274;43.980;2022-11-06T01:01:35;100790.44;;;-2.29;74.95
69982;BME280;57319;56.274;43.980;2022-11-06T01:04:12;100779.81;;;-2.23;74.53
69982;BME280;57319;56.274;43.980;2022-11-06T01:06:41;100787.84;;;-2.15;74.36
69982;BME280;57319;56.274;43.980;2022-11-06T01:09:08;100792.97;;;-2.14;73.96
69982;BME280;57319;56.274;43.980;2022-11-06T01:11:36;100792.72;;;-2.18;74.09
69982;BME280;57319;56.274;43.980;2022-11-06T01:14:03;100795.34;;;-2.47;74.92
69982;BME280;57319;56.274;43.980;2022-11-06T01:16:30;100779.50;;;-2.44;75.05
69982;BME280;57319;56.274;43.980;2022-11-06T01:18:57;100794.56;;;-2.31;74.81
69982;BME280;57319;56.274;43.980;2022-11-06T01:21:30;100794.56;;;-2.31;74.82
69982;BME280;57319;56.274;43.980;2022-11-06T01:24:01;100790.00;;;-2.22;74.74
69982;BME280;57319;56.274;43.980;2022-11-06T01:26:28;100790.53;;;-2.42;75.31
69982;BME280;57319;56.274;43.980;2022-11-06T01:28:55;100788.63;;;-2.46;75.83
69982;BME280;57319;56.274;43.980;2022-11-06T01:31:23;100786.47;;;-2.40;75.44
69982;BME280;57319;56.274;43.980;2022-11-06T01:33:49;100792.91;;;-2.45;75.72
69982;BME280;57319;56.274;43.980;2022-11-06T01:36:17;100780.28;;;-2.45;75.91
69982;BME280;57319;56.274;43.980;2022-11-06T01:38:47;100794.44;;;-2.32;75.59
69982;BME280;57319;56.274;43.980;2022-11-06T01:41:16;100791.75;;;-2.35;75.72
69982;BME280;57319;56.274;43.980;2022-11-06T01:43:49;100794.63;;;-2.29;75.67
69982;BME280;57319;56.274;43.980;2022-11-06T01:46:17;100798.47;;;-2.51;76.82
69982;BME280;57319;56.274;43.980;2022-11-06T01:48:49;100794.03;;;-2.55;77.54
69982;BME280;57319;56.274;43.980;2022-11-06T01:51:17;100796.81;;;-2.50;77.53
69982;BME280;57319;56.274;43.980;2022-11-06T01:53:44;100801.22;;;-2.46;77.88
69982;BME280;57319;56.274;43.980;2022-11-06T01:56:11;100793.25;;;-2.39;77.24
69982;BME280;57319;56.274;43.980;2022-11-06T01:58:41;100804.13;;;-2.40;76.97
69982;BME280;57319;56.274;43.980;2022-11-06T02:01:08;100807.94;;;-2.47;77.33
69982;BME280;57319;56.274;43.980;2022-11-06T02:03:37;100805.19;;;-2.51;77.90
69982;BME280;57319;56.274;43.980;2022-11-06T02:06:06;100813.06;;;-2.45;77.67
69982;BME280;57319;56.274;43.980;2022-11-06T02:08:32;100819.41;;;-2.37;77.25
69982;BME280;57319;56.274;43.980;2022-11-06T02:10:58;100811.25;;;-2.33;77.03
69982;BME280;57319;56.274;43.980;2022-11-06T02:13:36;100806.56;;;-2.27;77.22
69982;BME280;57319;56.274;43.980;2022-11-06T02:22:10;100816.66;;;-2.27;77.00
69982;BME280;57319;56.274;43.980;2022-11-06T02:25:14;100815.31;;;-2.20;76.46
69982;BME280;57319;56.274;43.980;2022-11-06T02:28:02;100815.41;;;-2.18;76.69
69982;BME280;57319;56.274;43.980;2022-11-06T02:30:35;100814.97;;;-2.26;76.75
69982;BME280;57319;56.274;43.980;2022-11-06T02:33:07;100809.78;;;-2.29;77.11
69982;BME280;57319;56.274;43.980;2022-11-06T02:38:09;100823.06;;;-2.32;77.49
69982;BME280;57319;56.274;43.980;2022-11-06T02:40:41;100813.22;;;-2.27;77.16
69982;BME280;57319;56.274;43.980;2022-11-06T02:43:09;100815.13;;;-2.23;77.12
69982;BME280;57319;56.274;43.980;2022-11-06T02:45:42;100810.78;;;-2.26;76.93
69982;BME280;57319;56.274;43.980;2022-11-06T02:48:12;100815.44;;;-2.33;76.81
69982;BME280;57319;56.274;43.980;2022-11-06T02:50:44;100815.06;;;-2.40;77.05
69982;BME280;57319;56.274;43.980;2022-11-06T02:53:13;100815.75;;;-2.42;77.12
69982;BME280;57319;56.274;43.980;2022-11-06T02:55:45;100810.81;;;-2.56;77.67
69982;BME280;57319;56.274;43.980;2022-11-06T02:58:35;100805.41;;;-2.62;78.31
69982;BME280;57319;56.274;43.980;2022-11-06T03:01:07;100817.25;;;-2.46;77.80
69982;BME280;57319;56.274;43.980;2022-11-06T03:03:40;100820.63;;;-2.45;78.02
69982;BME280;57319;56.274;43.980;2022-11-06T03:06:17;100816.03;;;-2.52;77.86
69982;BME280;57319;56.274;43.980;2022-11-06T03:08:51;100814.28;;;-2.53;78.35
69982;BME280;57319;56.274;43.980;2022-11-06T03:11:24;100802.97;;;-2.75;78.58
69982;BME280;57319;56.274;43.980;2022-11-06T03:14:02;100810.28;;;-2.50;77.82
69982;BME280;57319;56.274;43.980;2022-11-06T03:19:10;100808.19;;;-2.27;77.70
69982;BME280;57319;56.274;43.980;2022-11-06T03:27:19;100814.13;;;-2.27;77.27
69982;BME280;57319;56.274;43.980;2022-11-06T03:29:54;100824.28;;;-2.40;77.68
69982;BME280;57319;56.274;43.980;2022-11-06T03:32:46;100826.72;;;-2.27;77.63
69982;BME280;57319;56.274;43.980;2022-11-06T03:35:30;100817.25;;;-2.31;77.34
69982;BME280;57319;56.274;43.980;2022-11-06T03:38:45;100827.34;;;-2.31;77.38
69982;BME280;57319;56.274;43.980;2022-11-06T03:40:50;100827.50;;;-2.28;77.61
69982;BME280;57319;56.274;43.980;2022-11-06T03:43:20;100828.81;;;-2.49;77.91
69982;BME280;57319;56.274;43.980;2022-11-06T03:45:47;100828.66;;;-2.37;77.44
69982;BME280;57319;56.274;43.980;2022-11-06T03:48:42;100834.63;;;-2.50;78.16
69982;BME280;57319;56.274;43.980;2022-11-06T03:51:17;100826.38;;;-2.48;77.91
69982;BME280;57319;56.274;43.980;2022-11-06T03:53:54;100825.69;;;-2.45;78.07
69982;BME280;57319;56.274;43.980;2022-11-06T03:56:21;100829.34;;;-2.40;78.01
69982;BME280;57319;56.274;43.980;2022-11-06T03:58:49;100825.59;;;-2.32;77.85
69982;BME280;57319;56.274;43.980;2022-11-06T04:01:21;100837.59;;;-2.28;77.64
69982;BME280;57319;56.274;43.980;2022-11-06T04:04:00;100831.84;;;-2.25;77.73
69982;BME280;57319;56.274;43.980;2022-11-06T04:06:37;100836.28;;;-2.21;77.55
69982;BME280;57319;56.274;43.980;2022-11-06T04:09:08;100830.72;;;-2.15;77.49
69982;BME280;57319;56.274;43.980;2022-11-06T04:11:55;100826.91;;;-2.24;77.15
69982;BME280;57319;56.274;43.980;2022-11-06T04:14:44;100849.31;;;-2.28;77.50
69982;BME280;57319;56.274;43.980;2022-11-06T04:17:12;100844.03;;;-2.33;77.58
69982;BME280;57319;56.274;43.980;2022-11-06T04:19:45;100846.38;;;-2.36;77.79
69982;BME280;57319;56.274;43.980;2022-11-06T04:30:29;100852.47;;;-2.47;77.84
69982;BME280;57319;56.274;43.980;2022-11-06T04:38:43;100862.53;;;-2.62;78.12
69982;BME280;57319;56.274;43.980;2022-11-06T04:44:12;100860.34;;;-2.56;78.03
69982;BME280;57319;56.274;43.980;2022-11-06T04:46:46;100857.56;;;-2.61;78.24
69982;BME280;57319;56.274;43.980;2022-11-06T04:49:14;100862.97;;;-2.54;78.04
69982;BME280;57319;56.274;43.980;2022-11-06T04:51:42;100851.25;;;-2.54;78.51
69982;BME280;57319;56.274;43.980;2022-11-06T04:54:09;100862.81;;;-2.43;78.12
69982;BME280;57319;56.274;43.980;2022-11-06T04:56:35;100871.84;;;-2.46;78.11
69982;BME280;57319;56.274;43.980;2022-11-06T04:59:03;100862.69;;;-2.59;78.80
69982;BME280;57319;56.274;43.980;2022-11-06T05:01:29;100873.47;;;-2.62;79.23
69982;BME280;57319;56.274;43.980;2022-11-06T05:03:55;100874.50;;;-2.73;79.57
69982;BME280;57319;56.274;43.980;2022-11-06T05:06:20;100885.56;;;-2.56;79.18
69982;BME280;57319;56.274;43.980;2022-11-06T05:08:46;100875.66;;;-2.53;79.29
69982;BME280;57319;56.274;43.980;2022-11-06T05:11:12;100862.63;;;-2.61;78.97
69982;BME280;57319;56.274;43.980;2022-11-06T05:13:38;100871.41;;;-2.54;79.13
69982;BME280;57319;56.274;43.980;2022-11-06T05:16:04;100872.53;;;-2.49;79.09
69982;BME280;57319;56.274;43.980;2022-11-06T05:18:30;100875.59;;;-2.40;78.82
69982;BME280;57319;56.274;43.980;2022-11-06T05:21:02;100874.38;;;-2.31;77.93
69982;BME280;57319;56.274;43.980;2022-11-06T05:23:47;100867.09;;;-2.27;78.15
69982;BME280;57319;56.274;43.980;2022-11-06T05:26:13;100875.97;;;-2.18;77.97
69982;BME280;57319;56.274;43.980;2022-11-06T05:28:38;100875.44;;;-2.28;77.26
69982;BME280;57319;56.274;43.980;2022-11-06T05:31:05;100877.41;;;-2.37;77.26
69982;BME280;57319;56.274;43.980;2022-11-06T05:33:32;100883.53;;;-2.33;77.78
69982;BME280;57319;56.274;43.980;2022-11-06T05:36:03;100880.22;;;-2.47;78.24
69982;BME280;57319;56.274;43.980;2022-11-06T05:38:30;100886.09;;;-2.47;78.60
69982;BME280;57319;56.274;43.980;2022-11-06T05:40:56;100888.09;;;-2.41;77.92
69982;BME280;57319;56.274;43.980;2022-11-06T05:43:25;100880.34;;;-2.59;78.26
69982;BME280;57319;56.274;43.980;2022-11-06T05:45:50;100877.38;;;-2.67;78.58
69982;BME280;57319;56.274;43.980;2022-11-06T05:48:16;100888.94;;;-2.70;78.55
69982;BME280;57319;56.274;43.980;2022-11-06T05:50:42;100884.66;;;-2.71;78.40
69982;BME280;57319;56.274;43.980;2022-11-06T05:53:07;100884.00;;;-2.69;78.37
69982;BME280;57319;56.274;43.980;2022-11-06T05:55:33;100880.25;;;-2.61;78.20
69982;BME280;57319;56.274;43.980;2022-11-06T05:57:58;100882.06;;;-2.73;78.59
69982;BME280;57319;56.274;43.980;2022-11-06T06:00:24;100885.19;;;-2.77;79.33
69982;BME280;57319;56.274;43.980;2022-11-06T06:02:50;100889.81;;;-2.70;79.05
69982;BME280;57319;56.274;43.980;2022-11-06T06:05:16;100875.38;;;-2.73;78.85
69982;BME280;57319;56.274;43.980;2022-11-06T06:07:41;100882.34;;;-2.53;78.24
69982;BME280;57319;56.274;43.980;2022-11-06T06:10:07;100875.56;;;-2.54;77.80
69982;BME280;57319;56.274;43.980;2022-11-06T06:12:33;100887.56;;;-2.50;77.52
69982;BME280;57319;56.274;43.980;2022-11-06T06:14:59;100884.88;;;-2.53;77.43
69982;BME280;57319;56.274;43.980;2022-11-06T06:17:24;100884.63;;;-2.58;77.83
69982;BME280;57319;56.274;43.980;2022-11-06T06:19:50;100879.38;;;-2.76;78.49
69982;BME280;57319;56.274;43.980;2022-11-06T06:22:16;100865.38;;;-2.71;78.40
69982;BME280;57319;56.274;43.980;2022-11-06T06:24:42;100876.00;;;-2.62;78.14
69982;BME280;57319;56.274;43.980;2022-11-06T06:27:08;100862.25;;;-2.67;78.27
69982;BME280;57319;56.274;43.980;2022-11-06T06:29:33;100869.81;;;-2.67;78.05
69982;BME280;57319;56.274;43.980;2022-11-06T06:31:59;100876.09;;;-2.60;77.99
69982;BME280;57319;56.274;43.980;2022-11-06T06:34:24;100866.78;;;-2.61;77.65
69982;BME280;57319;56.274;43.980;2022-11-06T06:36:51;100875.38;;;-2.58;78.34
69982;BME280;57319;56.274;43.980;2022-11-06T06:39:18;100869.41;;;-2.60;78.03
69982;BME280;57319;56.274;43.980;2022-11-06T06:41:45;100867.25;;;-2.82;78.56
69982;BME280;57319;56.274;43.980;2022-11-06T06:44:11;100879.09;;;-2.81;79.17
69982;BME280;57319;56.274;43.980;2022-11-06T06:46:36;100877.94;;;-2.86;79.60
69982;BME280;57319;56.274;43.980;2022-11-06T06:49:02;100868.41;;;-2.77;79.33
69982;BME280;57319;56.274;43.980;2022-11-06T06:51:28;100866.66;;;-2.78;79.43
69982;BME280;57319;56.274;43.980;2022-11-06T06:53:53;100867.13;;;-2.70;79.37
69982;BME280;57319;56.274;43.980;2022-11-06T06:56:19;100870.78;;;-2.65;79.42
69982;BME280;57319;56.274;43.980;2022-11-06T06:58:45;100874.72;;;-2.55;78.76
69982;BME280;57319;56.274;43.980;2022-11-06T07:01:11;100865.84;;;-2.48;78.61
69982;BME280;57319;56.274;43.980;2022-11-06T07:03:37;100865.41;;;-2.41;78.46
69982;BME280;57319;56.274;43.980;2022-11-06T07:06:03;100856.72;;;-2.46;78.21
69982;BME280;57319;56.274;43.980;2022-11-06T07:08:29;100870.22;;;-2.31;78.15
69982;BME280;57319;56.274;43.980;2022-11-06T07:11:03;100847.72;;;-2.71;79.04
69982;BME280;57319;56.274;43.980;2022-11-06T07:13:30;100886.16;;;-2.60;78.98
69982;BME280;57319;56.274;43.980;2022-11-06T07:15:55;100867.66;;;-2.61;78.95
69982;BME280;57319;56.274;43.980;2022-11-06T07:18:21;100873.66;;;-2.59;78.44
69982;BME280;57319;56.274;43.980;2022-11-06T07:20:47;100872.66;;;-2.76;78.68
69982;BME280;57319;56.274;43.980;2022-11-06T07:23:12;100883.09;;;-2.84;79.25
69982;BME280;57319;56.274;43.980;2022-11-06T07:25:38;100881.09;;;-2.75;78.87
69982;BME280;57319;56.274;43.980;2022-11-06T07:28:05;100885.38;;;-2.59;78.33
69982;BME280;57319;56.274;43.980;2022-11-06T07:30:31;100885.13;;;-2.64;78.33
69982;BME280;57319;56.274;43.980;2022-11-06T07:33:02;100868.44;;;-2.62;78.00
69982;BME280;57319;56.274;43.980;2022-11-06T07:35:28;100880.34;;;-2.59;78.18
69982;BME280;57319;56.274;43.980;2022-11-06T07:37:54;100880.59;;;-2.54;78.22
69982;BME280;57319;56.274;43.980;2022-11-06T07:40:20;100874.78;;;-2.53;77.67
69982;BME280;57319;56.274;43.980;2022-11-06T07:42:46;100863.56;;;-2.59;77.57
69982;BME280;57319;56.274;43.980;2022-11-06T07:45:11;100876.94;;;-2.75;78.59
69982;BME280;57319;56.274;43.980;2022-11-06T07:47:37;100890.34;;;-2.61;78.53
69982;BME280;57319;56.274;43.980;2022-11-06T07:50:03;100889.28;;;-2.64;78.37
69982;BME280;57319;56.274;43.980;2022-11-06T07:52:29;100865.44;;;-2.69;78.07
69982;BME280;57319;56.274;43.980;2022-11-06T07:54:55;100897.56;;;-2.52;78.28
69982;BME280;57319;56.274;43.980;2022-11-06T07:57:22;100890.16;;;-2.49;77.92
69982;BME280;57319;56.274;43.980;2022-11-06T07:59:49;100891.66;;;-2.52;77.77
69982;BME280;57319;56.274;43.980;2022-11-06T08:02:15;100890.47;;;-2.44;77.77
69982;BME280;57319;56.274;43.980;2022-11-06T08:04:41;100888.06;;;-2.71;78.04
69982;BME280;57319;56.274;43.980;2022-11-06T08:07:07;100886.03;;;-2.48;77.71
69982;BME280;57319;56.274;43.980;2022-11-06T08:09:33;100881.66;;;-2.51;77.56
69982;BME280;57319;56.274;43.980;2022-11-06T08:11:58;100867.22;;;-2.53;77.51
69982;BME280;57319;56.274;43.980;2022-11-06T08:14:24;100870.44;;;-2.56;77.69
69982;BME280;57319;56.274;43.980;2022-11-06T08:16:50;100884.97;;;-2.37;77.34
69982;BME280;57319;56.274;43.980;2022-11-06T08:19:15;100883.22;;;-2.38;77.23
69982;BME280;57319;56.274;43.980;2022-11-06T08:21:41;100884.81;;;-2.40;77.26
69982;BME280;57319;56.274;43.980;2022-11-06T08:24:06;100884.81;;;-2.40;77.62
69982;BME280;57319;56.274;43.980;2022-11-06T08:26:32;100872.28;;;-2.39;77.32
69982;BME280;57319;56.274;43.980;2022-11-06T08:28:58;100874.81;;;-2.39;77.64
69982;BME280;57319;56.274;43.980;2022-11-06T08:31:24;100877.09;;;-2.43;77.93
69982;BME280;57319;56.274;43.980;2022-11-06T08:33:50;100884.53;;;-2.30;77.82
69982;BME280;57319;56.274;43.980;2022-11-06T08:36:16;100878.38;;;-2.20;77.46
69982;BME280;57319;56.274;43.980;2022-11-06T08:38:41;100869.50;;;-2.28;77.22
69982;BME280;57319;56.274;43.980;2022-11-06T08:41:11;100871.94;;;-2.30;77.42
69982;BME280;57319;56.274;43.980;2022-11-06T08:43:37;100871.25;;;-2.12;76.99
69982;BME280;57319;56.274;43.980;2022-11-06T08:46:05;100871.69;;;-2.19;76.96
69982;BME280;57319;56.274;43.980;2022-11-06T08:48:30;100864.81;;;-2.07;76.86
69982;BME280;57319;56.274;43.980;2022-11-06T08:50:56;100862.69;;;-1.99;76.67
69982;BME280;57319;56.274;43.980;2022-11-06T08:53:22;100871.16;;;-1.99;76.51
69982;BME280;57319;56.274;43.980;2022-11-06T08:55:47;100866.81;;;-2.01;76.41
69982;BME280;57319;56.274;43.980;2022-11-06T08:58:13;100863.16;;;-2.07;76.88
69982;BME280;57319;56.274;43.980;2022-11-06T09:00:39;100865.59;;;-2.23;77.63
69982;BME280;57319;56.274;43.980;2022-11-06T09:03:08;100880.13;;;-2.19;78.02
69982;BME280;57319;56.274;43.980;2022-11-06T09:05:34;100863.69;;;-2.12;77.45
69982;BME280;57319;56.274;43.980;2022-11-06T09:07:59;100842.88;;;-2.23;77.13
69982;BME280;57319;56.274;43.980;2022-11-06T09:10:26;100876.91;;;-2.01;76.86
69982;BME280;57319;56.274;43.980;2022-11-06T09:12:52;100863.91;;;-2.08;76.10
69982;BME280;57319;56.274;43.980;2022-11-06T09:15:17;100864.66;;;-2.10;76.06
69982;BME280;57319;56.274;43.980;2022-11-06T09:17:45;100875.59;;;-1.95;76.01
69982;BME280;57319;56.274;43.980;2022-11-06T09:20:12;100864.72;;;-2.09;75.86
69982;BME280;57319;56.274;43.980;2022-11-06T09:22:38;100866.91;;;-2.15;76.14
69982;BME280;57319;56.274;43.980;2022-11-06T09:25:04;100880.56;;;-2.26;76.78
69982;BME280;57319;56.274;43.980;2022-11-06T09:27:30;100867.84;;;-2.28;76.97
69982;BME280;57319;56.274;43.980;2022-11-06T09:29:56;100869.16;;;-2.19;76.25
69982;BME280;57319;56.274;43.980;2022-11-06T09:32:22;100865.06;;;-2.17;75.87
69982;BME280;57319;56.274;43.980;2022-11-06T09:34:49;100872.00;;;-2.28;76.08
69982;BME280;57319;56.274;43.980;2022-11-06T09:37:15;100858.03;;;-2.23;76.27
69982;BME280;57319;56.274;43.980;2022-11-06T09:39:40;100868.47;;;-2.17;76.05
69982;BME280;57319;56.274;43.980;2022-11-06T09:42:31;100867.50;;;-2.19;76.08
69982;BME280;57319;56.274;43.980;2022-11-06T09:45:24;100865.16;;;-2.46;76.88
69982;BME280;57319;56.274;43.980;2022-11-06T09:48:06;100857.28;;;-2.65;77.78
69982;BME280;57319;56.274;43.980;2022-11-06T09:50:40;100863.47;;;-2.60;77.75
69982;BME280;57319;56.274;43.980;2022-11-06T09:53:36;100855.97;;;-2.74;78.09
69982;BME280;57319;56.274;43.980;2022-11-06T09:56:04;100860.09;;;-2.61;77.81
69982;BME280;57319;56.274;43.980;2022-11-06T09:58:39;100857.41;;;-2.49;77.50
69982;BME280;57319;56.274;43.980;2022-11-06T10:01:16;100855.59;;;-2.51;77.70
69982;BME280;57319;56.274;43.980;2022-11-06T10:06:12;100843.69;;;-2.54;77.34
69982;BME280;57319;56.274;43.980;2022-11-06T10:08:40;100843.22;;;-2.62;77.81
69982;BME280;57319;56.274;43.980;2022-11-06T10:24:26;100840.56;;;-2.50;77.72
69982;BME280;57319;56.274;43.980;2022-11-06T10:26:57;100855.94;;;-2.45;77.68
69982;BME280;57319;56.274;43.980;2022-11-06T10:34:51;100851.06;;;-2.42;77.55
69982;BME280;57319;56.274;43.980;2022-11-06T10:37:24;100834.53;;;-2.67;77.63
69982;BME280;57319;56.274;43.980;2022-11-06T10:39:52;100843.94;;;-2.49;77.70
69982;BME280;57319;56.274;43.980;2022-11-06T10:42:21;100830.81;;;-2.44;77.36
69982;BME280;57319;56.274;43.980;2022-11-06T10:44:53;100841.34;;;-2.36;77.13
69982;BME280;57319;56.274;43.980;2022-11-06T10:47:23;100836.03;;;-2.56;77.96
69982;BME280;57319;56.274;43.980;2022-11-06T10:49:57;100838.13;;;-2.48;78.15
69982;BME280;57319;56.274;43.980;2022-11-06T10:52:29;100828.88;;;-2.48;78.06
69982;BME280;57319;56.274;43.980;2022-11-06T10:58:07;100828.19;;;-2.30;77.34
69982;BME280;57319;56.274;43.980;2022-11-06T11:00:35;100821.94;;;-2.37;77.64
69982;BME280;57319;56.274;43.980;2022-11-06T11:03:04;100827.22;;;-2.17;77.07
69982;BME280;57319;56.274;43.980;2022-11-06T11:05:38;100828.34;;;-2.12;76.61
69982;BME280;57319;56.274;43.980;2022-11-06T11:08:03;100822.53;;;-2.11;76.53
69982;BME280;57319;56.274;43.980;2022-11-06T11:12:58;100842.19;;;-2.06;76.59
69982;BME280;57319;56.274;43.980;2022-11-06T11:15:27;100823.84;;;-2.03;76.29
69982;BME280;57319;56.274;43.980;2022-11-06T11:18:14;100821.72;;;-1.95;76.22
69982;BME280;57319;56.274;43.980;2022-11-06T11:20:46;100830.63;;;-2.02;76.33
69982;BME280;57319;56.274;43.980;2022-11-06T11:23:19;100830.34;;;-2.07;76.09
69982;BME280;57319;56.274;43.980;2022-11-06T11:25:51;100828.72;;;-2.06;76.45
69982;BME280;57319;56.274;43.980;2022-11-06T11:30:54;100832.09;;;-2.06;76.59
69982;BME280;57319;56.274;43.980;2022-11-06T11:33:24;100828.25;;;-1.99;76.57
69982;BME280;57319;56.274;43.980;2022-11-06T11:35:52;100828.25;;;-1.99;76.44
69982;BME280;57319;56.274;43.980;2022-11-06T11:38:18;100828.34;;;-1.97;76.35
69982;BME280;57319;56.274;43.980;2022-11-06T11:40:45;100831.91;;;-1.94;76.17
69982;BME280;57319;56.274;43.980;2022-11-06T11:43:21;100834.69;;;-1.89;75.79
69982;BME280;57319;56.274;43.980;2022-11-06T11:48:55;100826.13;;;-1.91;75.66
69982;BME280;57319;56.274;43.980;2022-11-06T11:51:36;100822.31;;;-1.99;75.63
69982;BME280;57319;56.274;43.980;2022-11-06T11:56:49;100819.66;;;-2.17;76.46
69982;BME280;57319;56.274;43.980;2022-11-06T11:59:25;100823.06;;;-2.17;75.79
69982;BME280;57319;56.274;43.980;2022-11-06T12:01:54;100819.16;;;-2.42;76.94
69982;BME280;57319;56.274;43.980;2022-11-06T12:04:28;100826.91;;;-2.24;76.68
69982;BME280;57319;56.274;43.980;2022-11-06T12:07:00;100826.59;;;-2.13;76.82
69982;BME280;57319;56.274;43.980;2022-11-06T12:09:28;100824.47;;;-2.22;76.48
69982;BME280;57319;56.274;43.980;2022-11-06T12:11:56;100817.75;;;-2.22;76.98
69982;BME280;57319;56.274;43.980;2022-11-06T12:14:35;100828.19;;;-2.30;76.67
69982;BME280;57319;56.274;43.980;2022-11-06T12:17:17;100821.78;;;-2.25;76.74
69982;BME280;57319;56.274;43.980;2022-11-06T12:19:49;100826.28;;;-2.19;76.77
69982;BME280;57319;56.274;43.980;2022-11-06T12:22:28;100812.91;;;-2.18;76.54
69982;BME280;57319;56.274;43.980;2022-11-06T12:25:02;100821.31;;;-2.18;76.77
69982;BME280;57319;56.274;43.980;2022-11-06T12:27:37;100815.94;;;-2.39;76.46
69982;BME280;57319;56.274;43.980;2022-11-06T12:30:18;100827.66;;;-2.40;77.05
69982;BME280;57319;56.274;43.980;2022-11-06T12:35:37;100832.72;;;-2.40;76.78
69982;BME280;57319;56.274;43.980;2022-11-06T12:38:31;100829.13;;;-2.73;77.96
69982;BME280;57319;56.274;43.980;2022-11-06T12:43:38;100831.25;;;-2.51;78.01
69982;BME280;57319;56.274;43.980;2022-11-06T13:00:17;100824.97;;;-2.28;77.95
69982;BME280;57319;56.274;43.980;2022-11-06T13:03:00;100805.13;;;-2.36;77.69
69982;BME280;57319;56.274;43.980;2022-11-06T13:05:45;100832.78;;;-2.23;77.94
69982;BME280;57319;56.274;43.980;2022-11-06T13:08:43;100835.06;;;-2.28;78.07
69982;BME280;57319;56.274;43.980;2022-11-06T13:17:04;100846.44;;;-2.49;78.32
69982;BME280;57319;56.274;43.980;2022-11-06T13:19:38;100845.84;;;-2.45;77.97
69982;BME280;57319;56.274;43.980;2022-11-06T13:24:47;100842.88;;;-2.38;77.97
69982;BME280;57319;56.274;43.980;2022-11-06T13:27:17;100850.97;;;-2.29;77.55
69982;BME280;57319;56.274;43.980;2022-11-06T13:29:47;100859.53;;;-2.27;77.57
69982;BME280;57319;56.274;43.980;2022-11-06T13:32:16;100832.03;;;-2.37;77.37
69982;BME280;57319;56.274;43.980;2022-11-06T13:34:47;100856.72;;;-2.31;76.86
69982;BME280;57319;56.274;43.980;2022-11-06T13:37:17;100856.78;;;-2.45;77.27
69982;BME280;57319;56.274;43.980;2022-11-06T13:39:49;100862.00;;;-2.57;78.15
69982;BME280;57319;56.274;43.980;2022-11-06T13:44:50;100853.47;;;-2.59;77.96
69982;BME280;57319;56.274;43.980;2022-11-06T13:47:21;100860.63;;;-2.51;78.13
69982;BME280;57319;56.274;43.980;2022-11-06T13:50:32;100842.69;;;-2.71;78.48
69982;BME280;57319;56.274;43.980;2022-11-06T13:53:09;100875.03;;;-2.49;77.96
69982;BME280;57319;56.274;43.980;2022-11-06T14:06:42;100865.25;;;-2.87;78.64
69982;BME280;57319;56.274;43.980;2022-11-06T14:09:17;100875.97;;;-2.77;78.61
69982;BME280;57319;56.274;43.980;2022-11-06T14:11:49;100860.94;;;-2.75;78.43
69982;BME280;57319;56.274;43.980;2022-11-06T14:16:46;100858.41;;;-2.75;78.40
69982;BME280;57319;56.274;43.980;2022-11-06T14:19:30;100856.78;;;-2.75;78.13
69982;BME280;57319;56.274;43.980;2022-11-06T14:24:35;100860.75;;;-2.78;77.92
69982;BME280;57319;56.274;43.980;2022-11-06T14:27:08;100864.34;;;-2.75;78.10
69982;BME280;57319;56.274;43.980;2022-11-06T14:32:04;100862.59;;;-2.76;78.57
69982;BME280;57319;56.274;43.980;2022-11-06T14:34:41;100850.50;;;-2.81;77.95
69982;BME280;57319;56.274;43.980;2022-11-06T14:42:35;100852.97;;;-2.68;78.15
69982;BME280;57319;56.274;43.980;2022-11-06T14:45:16;100870.72;;;-2.51;77.89
69982;BME280;57319;56.274;43.980;2022-11-06T14:52:53;100858.34;;;-2.62;77.75
69982;BME280;57319;56.274;43.980;2022-11-06T14:55:27;100859.59;;;-2.55;77.57
69982;BME280;57319;56.274;43.980;2022-11-06T14:57:57;100861.41;;;-2.52;77.77
69982;BME280;57319;56.274;43.980;2022-11-06T15:03:04;100860.88;;;-2.47;77.38
69982;BME280;57319;56.274;43.980;2022-11-06T15:05:30;100843.41;;;-2.44;77.33